createdAt,value
2023-09-08T00:00:54.586Z,101813.28
2023-09-08T00:01:56.886Z,101810.81
2023-09-08T00:02:58.964Z,101818.00
2023-09-08T00:04:00.965Z,101817.44
2023-09-08T00:05:03.139Z,101813.38
2023-09-08T00:06:05.726Z,101815.25
2023-09-08T00:07:07.785Z,101812.03
2023-09-08T00:08:09.667Z,101808.81
2023-09-08T00:09:11.516Z,101803.69
2023-09-08T00:10:13.417Z,101808.47
2023-09-08T00:11:15.350Z,101810.56
2023-09-08T00:12:17.713Z,101807.31
2023-09-08T00:13:22.238Z,101811.81
2023-09-08T00:14:24.197Z,101813.13
2023-09-08T00:15:26.151Z,101808.84
2023-09-08T00:16:30.821Z,101809.91
2023-09-08T00:17:32.916Z,101804.78
2023-09-08T00:18:35.120Z,101810.09
2023-09-08T00:19:37.362Z,101805.28
2023-09-08T00:20:39.358Z,101799.94
2023-09-08T00:21:44.268Z,101807.13
2023-09-08T00:22:46.264Z,101802.03
2023-09-08T00:23:48.255Z,101803.66
2023-09-08T00:24:50.070Z,101804.13
2023-09-08T00:25:52.223Z,101802.50
2023-09-08T00:26:54.139Z,101797.44
2023-09-08T00:27:56.029Z,101796.84
2023-09-08T00:28:57.931Z,101800.53
2023-09-08T00:30:02.826Z,101799.16
2023-09-08T00:31:05.929Z,101799.16
2023-09-08T00:32:08.160Z,101797.28
2023-09-08T00:33:10.407Z,101799.16
2023-09-08T00:34:12.482Z,101800.19
2023-09-08T00:35:14.490Z,101801.81
2023-09-08T00:36:16.493Z,101788.50
2023-09-08T00:37:18.366Z,101797.28
2023-09-08T00:38:20.978Z,101792.22
2023-09-08T00:39:23.127Z,101796.75
2023-09-08T00:40:25.076Z,101793.47
2023-09-08T00:41:27.055Z,101793.72
2023-09-08T00:42:29.193Z,101791.31
2023-09-08T00:43:31.011Z,101792.56
2023-09-08T00:44:32.901Z,101785.63
2023-09-08T00:45:42.731Z,101789.81
2023-09-08T00:46:45.028Z,101797.47
2023-09-08T00:47:47.080Z,101789.94
2023-09-08T00:48:49.118Z,101798.16
2023-09-08T00:49:52.266Z,101796.78
2023-09-08T00:50:54.177Z,101797.00
2023-09-08T00:51:56.917Z,101792.97
2023-09-08T00:52:58.854Z,101794.81
2023-09-08T00:54:00.845Z,101790.56
2023-09-08T00:55:03.057Z,101796.91
2023-09-08T00:56:06.011Z,101791.00
2023-09-08T00:57:08.174Z,101791.25
2023-09-08T00:58:12.644Z,101786.16
2023-09-08T00:59:14.572Z,101791.72
2023-09-08T01:00:17.140Z,101794.38
2023-09-08T01:01:19.243Z,101791.94
2023-09-08T01:02:23.642Z,101783.97
2023-09-08T01:03:26.747Z,101798.31
2023-09-08T01:04:29.842Z,101794.03
2023-09-08T01:05:32.512Z,101788.97
2023-09-08T01:06:35.565Z,101797.75
2023-09-08T01:07:38.149Z,101797.38
2023-09-08T01:08:40.522Z,101797.38
2023-09-08T01:09:43.358Z,101790.69
2023-09-08T01:10:46.460Z,101790.09
2023-09-08T01:11:48.798Z,101792.75
2023-09-08T01:12:51.618Z,101788.47
2023-09-08T01:13:54.390Z,101791.38
2023-09-08T01:14:56.454Z,101793.22
2023-09-08T01:15:58.438Z,101794.28
2023-09-08T01:17:00.537Z,101794.50
2023-09-08T01:18:02.792Z,101791.84
2023-09-08T01:19:11.744Z,101783.28
2023-09-08T01:20:45.715Z,101785.94
2023-09-08T01:22:46.465Z,101779.25
2023-09-08T01:24:57.467Z,101785.63
2023-09-08T01:26:11.446Z,101779.72
2023-09-08T01:27:17.752Z,101777.06
2023-09-08T01:28:23.068Z,101785.03
2023-09-08T01:29:30.497Z,101782.59
2023-09-08T01:30:33.842Z,101779.16
2023-09-08T01:31:37.189Z,101782.84
2023-09-08T01:32:40.006Z,101772.44
2023-09-08T01:33:43.054Z,101780.63
2023-09-08T01:34:45.991Z,101778.47
2023-09-08T01:35:48.226Z,101785.84
2023-09-08T01:36:50.418Z,101773.03
2023-09-08T01:37:52.638Z,101773.25
2023-09-08T01:38:54.526Z,101777.16
2023-09-08T01:39:56.409Z,101775.53
2023-09-08T01:40:58.301Z,101772.31
2023-09-08T01:42:00.411Z,101768.25
2023-09-08T01:43:02.432Z,101768.72
2023-09-08T01:44:09.268Z,101768.97
2023-09-08T01:45:12.211Z,101777.75
2023-09-08T01:46:14.456Z,101769.16
2023-09-08T01:47:17.677Z,101772.63
2023-09-08T01:48:19.956Z,101768.13
2023-09-08T01:49:21.816Z,101773.66
2023-09-08T01:50:25.702Z,101768.84
2023-09-08T01:51:27.584Z,101774.34
2023-09-08T01:52:29.659Z,101769.75
2023-09-08T01:53:31.696Z,101768.34
2023-09-08T01:54:33.623Z,101771.69
2023-09-08T01:55:36.269Z,101768.47
2023-09-08T01:56:38.181Z,101773.78
2023-09-08T01:57:40.125Z,101769.50
2023-09-08T01:58:42.069Z,101766.03
2023-09-08T01:59:45.653Z,101768.94
2023-09-08T02:00:53.528Z,101765.69
2023-09-08T02:01:55.539Z,101760.59
2023-09-08T02:02:58.536Z,101769.84
2023-09-08T02:04:00.508Z,101770.84
2023-09-08T02:05:02.659Z,101775.16
2023-09-08T02:06:05.019Z,101763.94
2023-09-08T02:07:06.905Z,101764.75
2023-09-08T02:08:08.868Z,101763.94
2023-09-08T02:09:15.792Z,101766.81
2023-09-08T02:10:17.938Z,101772.94
2023-09-08T02:11:22.248Z,101767.88
2023-09-08T02:12:24.930Z,101765.44
2023-09-08T02:13:27.093Z,101763.81
2023-09-08T02:14:29.123Z,101764.03
2023-09-08T02:15:31.132Z,101755.50
2023-09-08T02:16:33.154Z,101756.56
2023-09-08T02:17:35.116Z,101755.94
2023-09-08T02:18:37.280Z,101759.66
2023-09-08T02:19:41.176Z,101759.88
2023-09-08T02:20:43.319Z,101761.72
2023-09-08T02:21:45.400Z,101760.31
2023-09-08T02:22:49.057Z,101757.91
2023-09-08T02:23:50.980Z,101758.69
2023-09-08T02:24:53.868Z,101759.16
2023-09-08T02:25:56.168Z,101759.16
2023-09-08T02:26:58.479Z,101759.41
2023-09-08T02:28:01.010Z,101753.50
2023-09-08T02:29:03.232Z,101758.22
2023-09-08T02:30:06.700Z,101753.38
2023-09-08T02:31:08.891Z,101754.63
2023-09-08T02:32:10.900Z,101751.63
2023-09-08T02:33:12.948Z,101755.53
2023-09-08T02:34:15.354Z,101753.31
2023-09-08T02:35:17.491Z,101754.38
2023-09-08T02:36:26.226Z,101755.59
2023-09-08T02:37:29.754Z,101755.84
2023-09-08T02:38:31.931Z,101755.22
2023-09-08T02:39:34.347Z,101757.53
2023-09-08T02:40:36.409Z,101761.19
2023-09-08T02:41:40.320Z,101755.31
2023-09-08T02:42:42.353Z,101756.78
2023-09-08T02:43:45.290Z,101750.69
2023-09-08T02:44:48.280Z,101756.00
2023-09-08T02:45:50.395Z,101757.03
2023-09-08T02:46:55.437Z,101749.53
2023-09-08T02:47:57.601Z,101752.38
2023-09-08T02:48:59.552Z,101750.19
2023-09-08T02:50:01.485Z,101749.81
2023-09-08T02:51:03.427Z,101749.03
2023-09-08T02:52:05.333Z,101744.75
2023-09-08T02:53:07.246Z,101752.28
2023-09-08T02:54:09.480Z,101749.81
2023-09-08T02:55:13.126Z,101742.91
2023-09-08T02:56:14.997Z,101748.69
2023-09-08T02:57:16.976Z,101744.41
2023-09-08T02:58:18.830Z,101748.06
2023-09-08T02:59:20.759Z,101746.47
2023-09-08T03:00:22.752Z,101750.16
2023-09-08T03:01:25.108Z,101743.22
2023-09-08T03:02:27.812Z,101746.91
2023-09-08T03:03:30.648Z,101742.66
2023-09-08T03:04:32.681Z,101740.81
2023-09-08T03:05:36.682Z,101742.66
2023-09-08T03:06:38.611Z,101746.31
2023-09-08T03:07:40.617Z,101739.41
2023-09-08T03:08:42.624Z,101739.06
2023-09-08T03:09:45.016Z,101740.91
2023-09-08T03:10:46.990Z,101743.75
2023-09-08T03:11:48.921Z,101742.94
2023-09-08T03:12:50.804Z,101741.56
2023-09-08T03:13:52.766Z,101740.53
2023-09-08T03:14:56.023Z,101737.28
2023-09-08T03:16:02.602Z,101738.69
2023-09-08T03:17:04.770Z,101731.75
2023-09-08T03:18:07.047Z,101734.41
2023-09-08T03:19:09.932Z,101738.91
2023-09-08T03:20:14.322Z,101733.59
2023-09-08T03:21:16.377Z,101736.03
2023-09-08T03:22:19.461Z,101731.53
2023-09-08T03:23:22.322Z,101739.25
2023-09-08T03:24:24.241Z,101727.25
2023-09-08T03:25:26.113Z,101731.75
2023-09-08T03:26:28.050Z,101740.75
2023-09-08T03:27:30.002Z,101732.78
2023-09-08T03:28:34.791Z,101732.78
2023-09-08T03:29:36.854Z,101728.53
2023-09-08T03:30:38.877Z,101732.19
2023-09-08T03:31:41.522Z,101730.16
2023-09-08T03:32:43.861Z,101731.38
2023-09-08T03:33:46.047Z,101736.69
2023-09-08T03:34:48.063Z,101738.75
2023-09-08T03:35:50.022Z,101744.06
2023-09-08T03:36:55.029Z,101738.19
2023-09-08T03:37:57.143Z,101734.91
2023-09-08T03:39:01.762Z,101738.25
2023-09-08T03:40:08.085Z,101740.53
2023-09-08T03:41:10.338Z,101736.25
2023-09-08T03:42:12.236Z,101745.25
2023-09-08T03:43:15.362Z,101744.41
2023-09-08T03:44:17.306Z,101741.41
2023-09-08T03:45:19.470Z,101743.47
2023-09-08T03:46:22.340Z,101746.56
2023-09-08T03:47:24.374Z,101748.81
2023-09-08T03:48:27.006Z,101742.94
2023-09-08T03:49:28.941Z,101747.66
2023-09-08T03:50:31.383Z,101746.06
2023-09-08T03:51:33.300Z,101747.88
2023-09-08T03:52:35.387Z,101745.25
2023-09-08T03:53:37.673Z,101743.78
2023-09-08T03:54:39.772Z,101743.78
2023-09-08T03:55:41.749Z,101748.50
2023-09-08T03:56:43.611Z,101745.06
2023-09-08T03:57:45.689Z,101748.75
2023-09-08T03:58:48.884Z,101742.59
2023-09-08T03:59:50.813Z,101744.25
2023-09-08T04:00:52.809Z,101747.72
2023-09-08T04:01:54.867Z,101743.63
2023-09-08T04:02:57.900Z,101747.91
2023-09-08T04:03:59.929Z,101742.25
2023-09-08T04:05:01.896Z,101746.97
2023-09-08T04:06:04.162Z,101747.16
2023-09-08T04:07:06.040Z,101749.00
2023-09-08T04:08:08.015Z,101750.25
2023-09-08T04:09:09.895Z,101745.38
2023-09-08T04:10:12.087Z,101747.22
2023-09-08T04:11:14.491Z,101748.50
2023-09-08T04:12:16.757Z,101749.53
2023-09-08T04:13:19.269Z,101746.25
2023-09-08T04:14:21.414Z,101746.47
2023-09-08T04:15:23.774Z,101746.94
2023-09-08T04:16:27.493Z,101744.06
2023-09-08T04:17:30.089Z,101749.59
2023-09-08T04:18:32.272Z,101749.34
2023-09-08T04:19:35.229Z,101747.94
2023-09-08T04:20:37.203Z,101750.00
2023-09-08T04:21:39.773Z,101745.97
2023-09-08T04:22:42.069Z,101744.31
2023-09-08T04:23:44.015Z,101739.88
2023-09-08T04:24:45.937Z,101744.53
2023-09-08T04:25:47.964Z,101746.97
2023-09-08T04:26:49.859Z,101749.63
2023-09-08T04:27:51.720Z,101746.97
2023-09-08T04:28:53.613Z,101749.63
2023-09-08T04:29:55.653Z,101748.00
2023-09-08T04:30:57.971Z,101747.41
2023-09-08T04:32:00.839Z,101749.47
2023-09-08T04:33:02.906Z,101753.34
2023-09-08T04:34:04.980Z,101750.72
2023-09-08T04:35:08.705Z,101751.75
2023-09-08T04:36:12.229Z,101749.09
2023-09-08T04:37:15.205Z,101746.22
2023-09-08T04:38:17.488Z,101752.53
2023-09-08T04:39:19.613Z,101749.91
2023-09-08T04:40:21.696Z,101753.56
2023-09-08T04:41:23.695Z,101758.88
2023-09-08T04:42:26.779Z,101756.00
2023-09-08T04:43:29.125Z,101760.47
2023-09-08T04:44:31.208Z,101755.19
2023-09-08T04:45:33.136Z,101755.19
2023-09-08T04:46:36.707Z,101751.75
2023-09-08T04:47:39.764Z,101756.22
2023-09-08T04:48:43.611Z,101759.91
2023-09-08T04:49:46.515Z,101748.50
2023-09-08T04:50:48.444Z,101754.59
2023-09-08T04:51:50.569Z,101754.81
2023-09-08T04:52:55.499Z,101753.19
2023-09-08T04:53:57.765Z,101759.09
2023-09-08T04:54:59.711Z,101751.16
2023-09-08T04:56:01.871Z,101750.34
2023-09-08T04:57:20.119Z,101761.94
2023-09-08T04:58:24.537Z,101753.41
2023-09-08T04:59:26.606Z,101759.97
2023-09-08T05:00:30.218Z,101763.59
2023-09-08T05:01:33.686Z,101762.78
2023-09-08T05:02:36.993Z,101755.66
2023-09-08T05:03:40.386Z,101759.34
2023-09-08T05:04:43.597Z,101759.34
2023-09-08T05:05:46.531Z,101762.00
2023-09-08T05:06:49.416Z,101762.00
2023-09-08T05:07:57.196Z,101757.31
2023-09-08T05:09:13.748Z,101765.03
2023-09-08T05:10:16.838Z,101763.19
2023-09-08T05:11:20.126Z,101760.53
2023-09-08T05:12:22.175Z,101765.03
2023-09-08T05:13:31.323Z,101767.22
2023-09-08T05:14:35.209Z,101769.88
2023-09-08T05:15:38.725Z,101764.59
2023-09-08T05:16:46.909Z,101763.56
2023-09-08T05:17:52.530Z,101758.28
2023-09-08T05:18:56.062Z,101758.88
2023-09-08T05:19:58.245Z,101757.25
2023-09-08T05:21:00.245Z,101763.72
2023-09-08T05:22:02.379Z,101763.72
2023-09-08T05:23:05.557Z,101755.59
2023-09-08T05:24:08.622Z,101760.66
2023-09-08T05:25:10.825Z,101754.31
2023-09-08T05:26:12.920Z,101755.94
2023-09-08T05:27:14.881Z,101756.75
2023-09-08T05:28:16.880Z,101754.91
2023-09-08T05:29:18.975Z,101760.00
2023-09-08T05:30:20.942Z,101751.84
2023-09-08T05:31:23.153Z,101756.91
2023-09-08T05:32:25.168Z,101754.66
2023-09-08T05:33:27.212Z,101755.81
2023-09-08T05:34:29.361Z,101757.00
2023-09-08T05:35:31.352Z,101753.50
2023-09-08T05:36:35.558Z,101754.91
2023-09-08T05:37:37.594Z,101749.97
2023-09-08T05:38:39.549Z,101756.88
2023-09-08T05:39:42.375Z,101748.75
2023-09-08T05:40:44.429Z,101755.22
2023-09-08T05:41:47.033Z,101755.38
2023-09-08T05:42:49.259Z,101763.03
2023-09-08T05:43:51.814Z,101757.66
2023-09-08T05:44:55.751Z,101760.63
2023-09-08T05:45:58.033Z,101760.09
2023-09-08T05:47:00.458Z,101762.22
2023-09-08T05:48:05.084Z,101753.16
2023-09-08T05:49:08.467Z,101762.19
2023-09-08T05:50:12.051Z,101758.22
2023-09-08T05:51:16.026Z,101751.53
2023-09-08T05:52:19.097Z,101763.94
2023-09-08T05:53:21.954Z,101759.56
2023-09-08T05:54:23.962Z,101763.78
2023-09-08T05:55:26.016Z,101760.56
2023-09-08T05:56:32.890Z,101765.88
2023-09-08T05:57:35.842Z,101759.22
2023-09-08T05:58:37.894Z,101761.78
2023-09-08T05:59:40.243Z,101756.59
2023-09-08T06:00:42.691Z,101760.16
2023-09-08T06:01:44.719Z,101754.41
2023-09-08T06:02:47.073Z,101761.78
2023-09-08T06:03:51.648Z,101761.66
2023-09-08T06:04:53.764Z,101755.19
2023-09-08T06:05:56.103Z,101761.97
2023-09-08T06:06:58.308Z,101756.78
2023-09-08T06:08:07.298Z,101768.91
2023-09-08T06:09:13.230Z,101767.59
2023-09-08T06:10:15.908Z,101762.41
2023-09-08T06:11:18.284Z,101767.56
2023-09-08T06:12:20.275Z,101760.06
2023-09-08T06:13:22.180Z,101759.28
2023-09-08T06:14:24.241Z,101759.47
2023-09-08T06:15:26.938Z,101755.81
2023-09-08T06:16:29.216Z,101760.53
2023-09-08T06:17:32.151Z,101758.56
2023-09-08T06:18:40.979Z,101756.13
2023-09-08T06:19:45.398Z,101760.03
2023-09-08T06:20:48.837Z,101759.22
2023-09-08T06:21:51.403Z,101760.28
2023-09-08T06:22:53.267Z,101758.84
2023-09-08T06:23:55.378Z,101759.66
2023-09-08T06:24:57.366Z,101761.28
2023-09-08T06:26:02.135Z,101760.84
2023-09-08T06:27:07.959Z,101754.50
2023-09-08T06:28:10.101Z,101758.78
2023-09-08T06:29:12.055Z,101759.94
2023-09-08T06:30:15.542Z,101749.91
2023-09-08T06:31:18.119Z,101758.47
2023-09-08T06:32:20.744Z,101757.19
2023-09-08T06:33:24.569Z,101758.56
2023-09-08T06:34:26.865Z,101755.13
2023-09-08T06:35:28.942Z,101751.44
2023-09-08T06:36:30.880Z,101757.09
2023-09-08T06:37:41.615Z,101757.66
2023-09-08T06:38:44.393Z,101751.56
2023-09-08T06:39:46.965Z,101751.91
2023-09-08T06:40:49.277Z,101747.19
2023-09-08T06:41:51.209Z,101748.00
2023-09-08T06:44:05.723Z,101756.31
2023-09-08T06:45:11.059Z,101751.13
2023-09-08T06:46:13.011Z,101753.31
2023-09-08T06:47:14.903Z,101744.09
2023-09-08T06:48:17.770Z,101747.34
2023-09-08T06:49:19.860Z,101749.53
2023-09-08T06:50:25.499Z,101747.78
2023-09-08T06:51:27.534Z,101749.53
2023-09-08T06:52:29.700Z,101741.69
2023-09-08T06:53:32.147Z,101738.91
2023-09-08T06:54:34.270Z,101745.75
2023-09-08T06:55:36.181Z,101734.91
2023-09-08T06:56:38.663Z,101747.72
2023-09-08T06:57:42.096Z,101743.78
2023-09-08T06:58:44.261Z,101734.50
2023-09-08T06:59:46.968Z,101747.97
2023-09-08T07:00:51.037Z,101744.34
2023-09-08T07:01:53.491Z,101743.56
2023-09-08T07:02:55.891Z,101746.41
2023-09-08T07:03:58.141Z,101747.53
2023-09-08T07:05:00.288Z,101746.50
2023-09-08T07:06:02.537Z,101750.91
2023-09-08T07:07:08.135Z,101743.88
2023-09-08T07:08:12.288Z,101752.19
2023-09-08T07:09:14.774Z,101754.13
2023-09-08T07:10:16.804Z,101755.19
2023-09-08T07:11:18.933Z,101748.56
2023-09-08T07:12:21.782Z,101753.19
2023-09-08T07:13:23.787Z,101754.63
2023-09-08T07:14:26.437Z,101755.53
2023-09-08T07:15:28.390Z,101756.66
2023-09-08T07:16:30.520Z,101749.25
2023-09-08T07:17:33.187Z,101755.25
2023-09-08T07:18:37.381Z,101755.88
2023-09-08T07:19:40.379Z,101744.03
2023-09-08T07:20:42.387Z,101749.53
2023-09-08T07:21:44.239Z,101749.66
2023-09-08T07:22:48.215Z,101748.94
2023-09-08T07:23:50.286Z,101742.56
2023-09-08T07:24:52.368Z,101752.47
2023-09-08T07:25:54.512Z,101749.09
2023-09-08T07:27:01.677Z,101747.22
2023-09-08T07:28:04.835Z,101751.84
2023-09-08T07:29:06.793Z,101751.06
2023-09-08T07:30:09.704Z,101744.75
2023-09-08T07:31:12.761Z,101752.91
2023-09-08T07:32:20.374Z,101748.75
2023-09-08T07:33:23.737Z,101754.75
2023-09-08T07:34:26.023Z,101746.50
2023-09-08T07:35:28.102Z,101748.69
2023-09-08T07:36:30.149Z,101747.69
2023-09-08T07:37:32.115Z,101753.03
2023-09-08T07:38:35.046Z,101748.03
2023-09-08T07:39:37.354Z,101749.97
2023-09-08T07:40:39.265Z,101752.19
2023-09-08T07:41:42.370Z,101751.16
2023-09-08T07:42:45.870Z,101748.31
2023-09-08T07:43:49.114Z,101750.03
2023-09-08T07:44:55.250Z,101749.88
2023-09-08T07:45:57.337Z,101746.28
2023-09-08T07:46:59.367Z,101748.00
2023-09-08T07:48:01.517Z,101751.34
2023-09-08T07:49:04.177Z,101753.34
2023-09-08T07:50:26.649Z,101756.47
2023-09-08T07:51:28.573Z,101757.03
2023-09-08T07:52:30.449Z,101757.03
2023-09-08T07:53:32.463Z,101755.47
2023-09-08T07:54:34.565Z,101760.84
2023-09-08T07:55:37.469Z,101757.97
2023-09-08T07:56:39.508Z,101755.91
2023-09-08T07:57:44.766Z,101757.09
2023-09-08T07:58:46.782Z,101759.56
2023-09-08T07:59:48.670Z,101761.72
2023-09-08T08:00:50.541Z,101760.91
2023-09-08T08:01:52.440Z,101758.53
2023-09-08T08:02:59.253Z,101763.34
2023-09-08T08:04:04.219Z,101764.66
2023-09-08T08:05:07.214Z,101757.88
2023-09-08T08:06:09.374Z,101760.19
2023-09-08T08:07:11.235Z,101750.72
2023-09-08T08:08:13.569Z,101754.66
2023-09-08T08:09:15.781Z,101755.56
2023-09-08T08:10:18.823Z,101751.06
2023-09-08T08:11:20.933Z,101757.47
2023-09-08T08:12:23.587Z,101759.31
2023-09-08T08:13:25.983Z,101749.75
2023-09-08T08:14:28.098Z,101753.75
2023-09-08T08:15:43.514Z,101746.00
2023-09-08T08:16:45.420Z,101741.72
2023-09-08T08:17:47.422Z,101747.34
2023-09-08T08:18:49.926Z,101740.47
2023-09-08T08:19:52.014Z,101746.81
2023-09-08T08:20:53.963Z,101747.41
2023-09-08T08:21:58.118Z,101745.22
2023-09-08T08:23:00.134Z,101746.06
2023-09-08T08:24:02.073Z,101744.31
2023-09-08T08:25:04.722Z,101748.84
2023-09-08T08:26:07.405Z,101739.88
2023-09-08T08:27:09.522Z,101744.69
2023-09-08T08:28:11.511Z,101740.75
2023-09-08T08:29:13.380Z,101739.53
2023-09-08T08:30:15.290Z,101747.25
2023-09-08T08:31:17.208Z,101735.31
2023-09-08T08:32:19.272Z,101738.97
2023-09-08T08:33:22.175Z,101736.44
2023-09-08T08:34:24.064Z,101732.31
2023-09-08T08:35:26.105Z,101738.69
2023-09-08T08:36:27.989Z,101739.09
2023-09-08T08:37:29.989Z,101739.28
2023-09-08T08:38:32.715Z,101734.88
2023-09-08T08:39:35.498Z,101732.81
2023-09-08T08:40:40.624Z,101730.38
2023-09-08T08:41:42.740Z,101736.06
2023-09-08T08:42:45.302Z,101734.16
2023-09-08T08:43:49.191Z,101731.91
2023-09-08T08:44:51.455Z,101730.66
2023-09-08T08:45:55.192Z,101728.53
2023-09-08T08:46:57.925Z,101736.88
2023-09-08T08:48:02.419Z,101731.53
2023-09-08T08:49:05.732Z,101732.31
2023-09-08T08:50:12.013Z,101734.28
2023-09-08T08:51:15.934Z,101740.88
2023-09-08T08:52:19.435Z,101736.50
2023-09-08T08:53:22.590Z,101734.66
2023-09-08T08:54:26.177Z,101734.00
2023-09-08T08:55:31.639Z,101734.59
2023-09-08T08:56:36.782Z,101734.38
2023-09-08T08:57:40.623Z,101729.47
2023-09-08T08:58:43.550Z,101728.75
2023-09-08T08:59:47.673Z,101721.75
2023-09-08T09:00:49.619Z,101725.16
2023-09-08T09:01:52.117Z,101730.66
2023-09-08T09:03:03.542Z,101722.94
2023-09-08T09:04:17.764Z,101721.91
2023-09-08T09:05:20.534Z,101721.41
2023-09-08T09:06:22.866Z,101722.50
2023-09-08T09:07:25.933Z,101725.25
2023-09-08T09:08:29.144Z,101734.97
2023-09-08T09:09:31.178Z,101728.06
2023-09-08T09:10:33.230Z,101723.31
2023-09-08T09:11:35.517Z,101727.34
2023-09-08T09:12:39.357Z,101724.06
2023-09-08T09:13:41.278Z,101719.31
2023-09-08T09:14:53.789Z,101726.34
2023-09-08T09:16:01.451Z,101726.81
2023-09-08T09:17:06.239Z,101718.88
2023-09-08T09:18:09.662Z,101721.09
2023-09-08T09:19:26.513Z,101720.78
2023-09-08T09:20:28.520Z,101724.88
2023-09-08T09:21:49.456Z,101722.16
2023-09-08T09:22:51.444Z,101721.69
2023-09-08T09:23:54.903Z,101722.66
2023-09-08T09:24:58.635Z,101721.78
2023-09-08T09:26:07.938Z,101725.66
2023-09-08T09:27:11.779Z,101721.00
2023-09-08T09:28:13.756Z,101722.38
2023-09-08T09:29:15.800Z,101718.41
2023-09-08T09:30:17.817Z,101723.31
2023-09-08T09:31:19.967Z,101726.75
2023-09-08T09:32:26.706Z,101720.91
2023-09-08T09:33:29.920Z,101717.41
2023-09-08T09:34:31.923Z,101722.81
2023-09-08T09:35:55.407Z,101721.06
2023-09-08T09:36:57.972Z,101717.81
2023-09-08T09:37:59.874Z,101722.28
2023-09-08T09:39:04.396Z,101719.44
2023-09-08T09:40:08.734Z,101715.38
2023-09-08T09:41:10.948Z,101711.63
2023-09-08T09:42:15.091Z,101709.72
2023-09-08T09:43:24.154Z,101708.25
2023-09-08T09:44:26.827Z,101708.69
2023-09-08T09:45:29.610Z,101710.09
2023-09-08T09:46:31.981Z,101705.28
2023-09-08T09:47:34.105Z,101706.31
2023-09-08T09:48:36.998Z,101704.63
2023-09-08T09:49:49.894Z,101706.75
2023-09-08T09:50:52.160Z,101711.28
2023-09-08T09:51:55.163Z,101701.75
2023-09-08T09:53:01.220Z,101707.44
2023-09-08T09:54:05.457Z,101710.56
2023-09-08T09:55:09.241Z,101706.25
2023-09-08T09:56:12.662Z,101705.56
2023-09-08T09:57:15.758Z,101707.75
2023-09-08T09:58:21.815Z,101711.19
2023-09-08T09:59:24.777Z,101703.03
2023-09-08T10:00:29.077Z,101705.09
2023-09-08T10:01:33.295Z,101702.56
2023-09-08T10:02:36.077Z,101703.19
2023-09-08T10:03:41.424Z,101695.22
2023-09-08T10:04:46.922Z,101697.25
2023-09-08T10:05:50.919Z,101698.41
2023-09-08T10:06:54.787Z,101700.88
2023-09-08T10:07:58.882Z,101692.03
2023-09-08T10:09:05.918Z,101698.75
2023-09-08T10:10:08.359Z,101697.88
2023-09-08T10:11:12.902Z,101692.81
2023-09-08T10:12:19.056Z,101697.03
2023-09-08T10:13:41.583Z,101691.28
2023-09-08T10:14:44.663Z,101688.28
2023-09-08T10:15:50.906Z,101687.75
2023-09-08T10:17:00.792Z,101689.56
2023-09-08T10:18:06.834Z,101686.81
2023-09-08T10:19:11.409Z,101690.50
2023-09-08T10:20:17.055Z,101688.91
2023-09-08T10:21:22.696Z,101687.88
2023-09-08T10:22:33.245Z,101689.75
2023-09-08T10:23:43.394Z,101687.28
2023-09-08T10:24:49.536Z,101680.25
2023-09-08T10:26:04.617Z,101684.94
2023-09-08T10:27:12.986Z,101688.47
2023-09-08T10:28:16.908Z,101682.81
2023-09-08T10:29:20.222Z,101685.47
2023-09-08T10:30:23.820Z,101681.94
2023-09-08T10:31:28.610Z,101687.84
2023-09-08T10:32:34.560Z,101680.81
2023-09-08T10:33:38.423Z,101680.75
2023-09-08T10:34:42.334Z,101683.69
2023-09-08T10:35:45.176Z,101678.06
2023-09-08T10:36:47.274Z,101677.59
2023-09-08T10:37:49.201Z,101681.69
2023-09-08T10:38:52.905Z,101669.59
2023-09-08T10:39:55.234Z,101672.03
2023-09-08T10:41:16.100Z,101666.56
2023-09-08T10:42:18.130Z,101665.72
2023-09-08T10:43:21.374Z,101668.91
2023-09-08T10:44:23.498Z,101674.28
2023-09-08T10:45:26.770Z,101663.81
2023-09-08T10:46:31.844Z,101670.56
2023-09-08T10:47:58.048Z,101668.75
2023-09-08T10:49:11.325Z,101660.72
2023-09-08T10:50:26.768Z,101666.34
2023-09-08T10:51:28.636Z,101670.34
2023-09-08T10:52:31.137Z,101665.25
2023-09-08T10:53:33.040Z,101667.69
2023-09-08T10:54:54.205Z,101668.78
2023-09-08T10:57:02.040Z,101659.38
2023-09-08T10:58:06.609Z,101666.28
2023-09-08T10:59:08.548Z,101665.41
2023-09-08T11:00:13.161Z,101665.94
2023-09-08T11:01:27.497Z,101667.53
2023-09-08T11:02:45.789Z,101665.38
2023-09-08T11:03:51.693Z,101667.59
2023-09-08T11:04:55.486Z,101662.31
2023-09-08T11:05:58.392Z,101660.84
2023-09-08T11:07:01.584Z,101656.09
2023-09-08T11:08:04.944Z,101666.38
2023-09-08T11:09:10.776Z,101661.06
2023-09-08T11:10:14.301Z,101665.63
2023-09-08T11:11:19.191Z,101662.16
2023-09-08T11:12:23.737Z,101661.34
2023-09-08T11:13:25.651Z,101673.44
2023-09-08T11:14:27.556Z,101659.78
2023-09-08T11:15:29.510Z,101659.78
2023-09-08T11:16:34.453Z,101658.41
2023-09-08T11:17:43.484Z,101659.97
2023-09-08T11:18:45.822Z,101658.81
2023-09-08T11:19:51.098Z,101664.44
2023-09-08T11:20:54.330Z,101658.50
2023-09-08T11:21:57.006Z,101652.31
2023-09-08T11:23:00.595Z,101666.28
2023-09-08T11:24:05.887Z,101660.63
2023-09-08T11:25:11.956Z,101661.97
2023-09-08T11:26:14.509Z,101665.19
2023-09-08T11:27:16.652Z,101661.72
2023-09-08T11:28:22.349Z,101656.34
2023-09-08T11:29:24.642Z,101662.56
2023-09-08T11:30:26.972Z,101656.13
2023-09-08T11:31:28.982Z,101655.34
2023-09-08T11:32:36.088Z,101655.88
2023-09-08T11:33:41.146Z,101659.38
2023-09-08T11:34:43.370Z,101651.00
2023-09-08T11:35:49.335Z,101655.00
2023-09-08T11:36:51.439Z,101651.50
2023-09-08T11:37:54.164Z,101645.13
2023-09-08T11:38:56.038Z,101655.34
2023-09-08T11:39:58.213Z,101645.19
2023-09-08T11:41:01.472Z,101644.13
2023-09-08T11:42:04.395Z,101640.66
2023-09-08T11:43:07.769Z,101647.63
2023-09-08T11:44:09.942Z,101644.94
2023-09-08T11:45:19.225Z,101643.03
2023-09-08T11:46:22.658Z,101648.41
2023-09-08T11:47:25.828Z,101635.78
2023-09-08T11:48:28.335Z,101637.91
2023-09-08T11:49:41.952Z,101643.00
2023-09-08T11:50:45.800Z,101631.94
2023-09-08T11:51:47.919Z,101636.25
2023-09-08T11:52:53.521Z,101641.34
2023-09-08T11:53:56.046Z,101639.47
2023-09-08T11:55:06.579Z,101634.59
2023-09-08T11:56:09.711Z,101637.22
2023-09-08T11:57:13.134Z,101631.84
2023-09-08T11:58:15.693Z,101635.63
2023-09-08T11:59:18.230Z,101629.47
2023-09-08T12:00:23.898Z,101627.03
2023-09-08T12:01:26.362Z,101620.84
2023-09-08T12:02:28.445Z,101628.13
2023-09-08T12:03:30.423Z,101623.28
2023-09-08T12:04:37.128Z,101619.22
2023-09-08T12:05:40.574Z,101621.03
2023-09-08T12:06:43.346Z,101620.47
2023-09-08T12:07:45.657Z,101617.22
2023-09-08T12:08:47.704Z,101614.53
2023-09-08T12:09:49.862Z,101611.84